CST,Max TemperatureF,Mean TemperatureF,Min TemperatureF,Max Dew PointF,MeanDew PointF,Min DewpointF,Max Humidity, Mean Humidity, Min Humidity, Max Sea Level PressureIn, Mean Sea Level PressureIn, Min Sea Level PressureIn, Max VisibilityMiles, Mean VisibilityMiles, Min VisibilityMiles, Max Wind SpeedMPH, Mean Wind SpeedMPH, Max Gust SpeedMPH,PrecipitationIn, CloudCover, Events, WindDirDegrees
2013-2-1,6,0,-6,2,-6,-12,83,73,62,30.38,30.25,30.10,10,6,1,10,6,15,0.07,4,Snow,227
2013-2-2,11,8,5,3,2,-1,88,76,63,30.15,30.10,29.99,10,6,2,15,5,78,0.03,6,Snow,34
2013-2-3,19,14,8,12,7,3,88,72,56,30.06,30.00,29.92,10,6,2,17,5,25,0.05,6,Snow,275
2013-2-4,17,13,8,13,8,2,88,71,54,30.01,29.98,29.92,10,7,1,15,7,24,0.11,6,Snow,53
2013-2-5,30,17,4,22,14,2,88,78,68,30.13,29.88,29.75,10,6,1,18,6,25,0.10,7,Snow,238
2013-2-6,34,17,-1,29,11,-5,92,80,68,30.24,30.15,30.07,9,5,0,17,5,26,T,4,Fog-Snow,156
2013-2-7,34,28,22,32,28,19,96,89,82,30.12,30.00,29.91,6,2,0,23,10,33,0.55,8,Fog-Rain-Snow,48
2013-2-8,25,15,4,18,13,0,92,77,62,30.42,30.33,30.11,10,10,7,22,7,28,T,5,,12
2013-2-9,29,16,2,24,18,1,92,84,75,30.42,30.27,30.09,10,6,1,20,10,33,T,7,Snow,176
2013-2-10,44,30,16,40,30,16,100,92,84,30.08,29.69,29.37,10,4,0,23,12,30,0.65,7,Fog-Rain,147
2013-2-11,38,32,25,32,24,18,82,75,68,30.01,29.70,29.40,10,9,5,22,12,35,T,8,Snow,264
2013-2-12,30,26,21,21,17,14,81,72,63,30.10,30.01,29.88,10,10,7,14,7,20,T,4,Snow,240
2013-2-13,38,27,16,29,24,15,96,80,64,29.87,29.76,29.68,10,8,3,14,4,21,T,4,,193
2013-2-14,36,32,27,34,26,19,89,71,52,30.03,29.77,29.56,10,8,2,20,9,28,0.01,8,Rain-Snow,296
2013-2-15,26,19,11,17,7,2,71,57,42,30.25,30.19,30.06,10,10,10,17,8,23,0.00,2,,314
2013-2-16,18,10,2,4,1,-1,87,67,47,30.24,30.21,30.18,10,10,9,16,5,21,T,3,Snow,315
2013-2-17,27,13,-1,18,6,-3,87,71,54,30.23,30.14,29.94,10,10,10,18,7,22,0.00,0,,158
2013-2-18,45,34,23,36,28,18,96,81,65,29.91,29.58,29.47,10,7,1,18,11,28,0.18,5,Rain-Snow,245
2013-2-19,23,16,8,15,6,-3,84,71,58,30.24,29.84,29.60,10,6,1,22,13,32,T,6,Snow,294
2013-2-20,23,14,5,8,3,-4,76,64,52,30.41,30.37,30.25,10,10,10,10,7,17,0.00,0,,319
2013-2-21,26,19,11,23,15,5,92,80,67,30.45,30.26,30.03,10,7,0,25,11,32,0.04,6,Fog-Snow,57
2013-2-22,30,27,24,25,23,21,92,84,75,30.02,29.87,29.77,10,4,0,24,6,29,0.20,8,Fog-Snow,105
2013-2-23,29,26,22,21,18,15,81,72,63,29.96,29.90,29.84,10,9,5,13,6,17,T,7,Snow,243
2013-2-24,38,25,12,21,17,10,92,70,48,30.16,30.10,29.98,10,10,6,10,2,13,0.00,0,,249
2013-2-25,39,27,15,25,21,13,92,73,54,30.19,30.13,30.05,10,7,5,9,3,12,0.00,2,,110
2013-2-26,34,31,27,28,26,24,92,81,69,30.02,29.75,29.64,10,5,0,36,20,45,0.17,6,Fog-Snow,32
2013-2-27,33,31,29,30,28,26,92,85,78,29.82,29.70,29.62,10,2,1,25,15,30,0.25,8,Snow,357
2013-2-28,34,29,24,30,25,17,92,81,69,30.16,29.99,29.79,10,10,5,21,12,24,T,8,Snow,4